Latest Weather Observations for Perisher Valley

IDN60801

Issued at 11:22 pm EST Saturday 22 September 2018 (issued every 10 minutes, with the page automatically refreshed every 10 minutes)

About weather observations | Map of weather stations | Latest weather observations for NSW | Other Formats
Station Details ID: 071075 Name: PERISHER VALLEY AWS Lat: -36.41 Lon: 148.41 Height: 1738.0 m
Data from the previous 72 hours. | See also: Recent months at Perisher Valley
Date/Time
EST
Temp
°C
App
Temp
°C
Dew
Point
°C
Rel
Hum
%
Delta-T
°C
Wind Press
QNH
hPa
Press
MSL
hPa
Rain since
9am
mm
Dir  Spd
km/h
Gust
km/h
Spd
kts
Gust
kts
22/11:00pm 2.8 -1.6 0.2 83 1.1 W 13 24 7 13 - - 0.0
22/10:30pm 3.1 -2.0 0.8 85 1.0 W 17 28 9 15 - - 0.0
22/10:00pm 3.4 -2.1 0.3 80 1.3 WNW 19 30 10 16 - - 0.0
22/09:30pm 3.3 -0.5 -1.1 73 1.8 WNW 9 17 5 9 - - 0.0
22/09:00pm 1.1 -2.4 -2.5 77 1.5 SW 6 11 3 6 - - 0.0
22/08:30pm 2.1 -1.2 -1.5 77 1.4 SW 6 13 3 7 - - 0.0
22/08:00pm 2.6 -1.2 -0.7 79 1.4 W 9 13 5 7 - - 0.0
22/07:30pm 1.5 -1.5 -1.9 78 1.3 W 4 7 2 4 - - 0.0
22/07:00pm 1.7 -1.3 -1.5 79 1.3 SW 4 9 2 5 - - 0.0
22/06:30pm 2.7 0.5 -1.6 73 1.7 CALM 0 4 0 2 - - 0.0
22/06:00pm 4.5 1.1 -0.9 68 2.2 WSW 7 15 4 8 - - 0.0
22/05:30pm 5.3 -0.2 -1.8 60 2.9 W 17 22 9 12 - - 0.0
22/05:00pm 6.1 1.0 -1.8 57 3.3 W 15 22 8 12 - - 0.0
22/04:30pm 7.2 2.7 -3.3 47 4.2 W 11 26 6 14 - - 0.0
22/04:00pm 7.0 3.0 -2.2 52 3.8 W 9 17 5 9 - - 0.0
22/03:30pm 7.3 3.6 -3.0 48 4.2 WSW 7 24 4 13 - - 0.0
22/03:00pm 7.4 1.9 -5.3 40 4.9 WSW 15 33 8 18 - - 0.0
22/02:30pm 6.9 1.5 -4.8 43 4.5 SW 15 35 8 19 - - 0.0
22/02:00pm 7.9 3.0 -7.4 33 5.6 WSW 11 28 6 15 - - 0.0
22/01:30pm 7.9 2.9 -8.2 31 5.8 WSW 11 28 6 15 - - 0.0
22/01:00pm 8.5 3.3 -11.4 23 6.7 WSW 11 28 6 15 - - 0.0
22/12:30pm 8.9 3.6 -11.6 22 6.9 W 11 26 6 14 - - 0.0
22/12:00pm 8.9 4.3 -14.1 18 7.3 WSW 7 20 4 11 - - 0.0
22/11:30am 7.1 0.4 -10.1 28 5.9 W 19 35 10 19 - - 0.0
22/11:00am 7.9 1.2 -17.9 14 7.4 W 17 33 9 18 - - 0.0
22/10:30am 8.8 2.1 -16.4 15 7.6 W 17 30 9 16 - - 0.0
22/10:00am 9.1 1.6 -22.1 9 8.3 WSW 20 35 11 19 - - 0.0
22/09:30am 9.1 2.6 -20.9 10 8.2 WSW 15 26 8 14 - - 0.0
22/09:00am 9.2 3.1 -20.8 10 8.3 WSW 13 22 7 12 - - 0.0
22/08:30am 8.9 4.3 -16.3 15 7.7 SW 6 17 3 9 - - 0.0
22/08:00am 7.9 2.8 -14.9 18 7.0 W 9 22 5 12 - - 0.0
22/07:30am 6.4 3.5 -8.3 34 5.2 CALM 0 6 0 3 - - 0.0
22/07:00am 5.2 -0.2 -7.9 38 4.6 SW 13 22 7 12 - - 0.0
22/06:30am 2.8 -0.8 -7.1 48 3.6 SW 4 13 2 7 - - 0.0
22/06:00am 3.4 0.1 -4.5 56 3.0 W 4 15 2 8 - - 0.0
22/05:30am 3.7 -0.1 -3.8 58 2.9 S 7 15 4 8 - - 0.0
22/05:00am 5.1 -1.5 -2.9 56 3.2 W 22 33 12 18 - - 0.0
22/04:30am 4.8 -1.7 -2.7 58 3.0 WNW 22 35 12 19 - - 0.0
22/04:00am 5.0 -0.9 -2.6 58 3.1 W 19 32 10 17 - - 0.0
22/03:30am 2.7 -1.2 -4.3 60 2.6 NNW 7 22 4 12 - - 0.0
22/03:00am 3.4 -0.3 -2.7 64 2.4 NW 7 26 4 14 - - 0.0
22/02:30am 0.8 -1.8 -5.0 65 2.1 CALM 0 0 0 0 - - 0.0
22/02:00am 0.2 -3.3 -6.0 63 2.2 NNE 4 13 2 7 - - 0.0
22/01:30am 0.4 -3.0 -5.6 64 2.1 NNE 4 6 2 3 - - 0.0
22/01:00am 0.0 -3.0 -5.4 67 1.9 NE 2 2 1 1 - - 0.0
22/12:30am -0.7 -4.1 -5.7 69 1.7 SSW 4 6 2 3 - - 0.0
22/12:00am -0.8 -3.4 -5.2 72 1.5 CALM 0 2 0 1 - - 0.0
 
Date/Time
EST
Temp
°C
App
Temp
°C
Dew
Point
°C
Rel
Hum
%
Delta-T
°C
Wind Press
QNH
hPa
Press
MSL
hPa
Rain since
9am
mm
Dir  Spd
km/h
Gust
km/h
Spd
kts
Gust
kts
21/11:30pm -0.6 -3.2 -4.8 73 1.5 CALM 0 2 0 1 - - 0.0
21/11:00pm 0.1 -2.4 -3.6 76 1.4 CALM 0 6 0 3 - - 0.0
21/10:30pm -0.2 -3.1 -3.9 76 1.4 SW 2 6 1 3 - - 0.0
21/10:00pm 0.2 -2.2 -3.5 76 1.4 CALM 0 4 0 2 - - 0.0
21/09:30pm 0.3 -2.9 -3.1 78 1.3 SW 4 7 2 4 - - 0.0
21/09:00pm 0.5 -2.2 -2.7 79 1.3 SW 2 6 1 3 - - 0.0
21/08:30pm 1.0 -1.7 -2.6 77 1.4 WSW 2 4 1 2 - - 0.0
21/08:00pm 2.4 -0.6 -1.6 75 1.6 SW 4 7 2 4 - - 0.0
21/07:30pm 1.9 -0.3 -1.5 78 1.4 CALM 0 4 0 2 - - 0.0
21/07:00pm 2.9 0.4 -1.3 74 1.7 WSW 2 9 1 5 - - 0.0
21/06:30pm 3.5 1.0 -0.9 73 1.8 S 2 9 1 5 - - 0.0
21/06:00pm 4.5 0.4 0.1 73 1.9 WSW 11 19 6 10 - - 0.0
21/05:30pm 4.5 -0.6 0.6 76 1.7 W 17 26 9 14 - - 0.0
21/05:00pm 5.5 1.1 0.3 69 2.3 W 13 20 7 11 - - 0.0
21/04:30pm 6.1 1.6 0.0 65 2.6 W 13 20 7 11 - - 0.0
21/04:00pm 6.0 1.2 -0.1 65 2.6 W 15 26 8 14 - - 0.0
21/03:30pm 6.9 3.1 -0.5 59 3.2 W 9 17 5 9 - - 0.0
21/03:00pm 7.7 4.7 -1.8 51 4.0 SW 4 11 2 6 - - 0.0
21/02:30pm 7.3 3.9 -2.2 51 3.9 WSW 6 17 3 9 - - 0.0
21/02:00pm 7.3 4.2 -3.0 48 4.2 SSE 4 9 2 5 - - 0.0
21/01:30pm 7.3 3.8 -3.0 48 4.2 WSW 6 19 3 10 - - 0.0
21/01:00pm 6.3 1.2 -2.3 54 3.5 W 15 26 8 14 - - 0.0
21/12:30pm 6.7 2.5 -3.5 48 4.1 SW 9 20 5 11 - - 0.0
21/12:00pm 5.8 0.2 -2.8 54 3.5 W 17 26 9 14 - - 0.0
21/11:30am 5.9 1.3 -3.7 50 3.8 W 11 20 6 11 - - 0.0
21/11:00am 7.1 2.5 -4.3 44 4.5 W 11 20 6 11 - - 0.0
21/10:30am 7.5 2.5 -7.7 33 5.5 WSW 11 22 6 12 - - 0.0
21/10:00am 6.7 1.2 -5.6 41 4.7 WSW 15 28 8 15 - - 0.0
21/09:30am 6.5 1.1 -4.3 46 4.2 WSW 15 32 8 17 - - 0.0
21/09:00am 6.7 1.0 -7.3 36 5.1 WSW 15 24 8 13 - - 0.0
21/08:30am 5.6 -0.8 -6.6 41 4.5 WSW 19 30 10 16 - - 0.0
21/08:00am 5.6 0.0 -11.0 29 5.4 WSW 13 24 7 13 - - 0.0
21/07:30am 4.2 -0.2 -12.7 28 5.5 WSW 6 15 3 8 - - 0.0
21/07:00am 1.1 -2.2 -7.9 51 3.1 NNE 2 6 1 3 - - 0.0
21/06:30am -1.0 -3.9 -8.6 56 2.4 CALM 0 2 0 1 - - 0.0
21/06:00am 0.8 -4.2 -7.9 52 3.0 WSW 11 19 6 10 - - 0.0
21/05:30am -0.6 -4.2 -7.8 58 2.4 NW 4 13 2 7 - - 0.0
21/05:00am 1.5 -3.9 -8.6 47 3.4 W 13 20 7 11 - - 0.0
21/04:30am 1.0 -3.6 -8.5 49 3.2 WSW 9 17 5 9 - - 0.0
21/04:00am 1.4 -3.3 -9.5 44 3.6 SW 9 17 5 9 - - 0.0
21/03:30am 0.4 -4.3 -9.0 49 3.1 WSW 9 15 5 8 - - 0.0
21/03:00am 0.1 -4.5 -7.4 57 2.5 WSW 9 17 5 9 - - 0.0
21/02:30am 0.4 -4.3 -9.3 48 3.1 WSW 9 15 5 8 - - 0.0
21/02:00am -2.8 -6.5 -8.1 67 1.6 SW 4 17 2 9 - - 0.0
21/01:30am -2.5 -6.5 -7.2 70 1.4 SW 6 7 3 4 - - 0.0
21/01:00am -2.1 -5.5 -5.6 77 1.1 WNW 4 11 2 6 - - 0.0
21/12:30am -3.3 -6.0 -6.4 79 0.9 CALM 0 0 0 0 - - 0.0
21/12:00am -3.6 -6.4 -6.5 80 0.8 CALM 0 4 0 2 - - 0.0
 
Date/Time
EST
Temp
°C
App
Temp
°C
Dew
Point
°C
Rel
Hum
%
Delta-T
°C
Wind Press
QNH
hPa
Press
MSL
hPa
Rain since
9am
mm
Dir  Spd
km/h
Gust
km/h
Spd
kts
Gust
kts
20/11:30pm -3.7 -6.5 -6.8 79 0.9 CALM 0 4 0 2 - - 0.0
20/11:00pm -2.7 -6.7 -5.5 81 0.8 SW 7 9 4 5 - - 0.0
20/10:30pm -2.5 -5.9 -5.3 81 0.9 WSW 4 9 2 5 - - 0.0
20/10:00pm -2.5 -5.2 -5.6 79 0.9 CALM 0 2 0 1 - - 0.0
20/09:30pm -1.9 -4.6 -6.1 73 1.3 CALM 0 6 0 3 - - 0.0
20/09:00pm -0.9 -3.9 -5.1 73 1.4 N 2 15 1 8 - - 0.0
20/08:30pm -0.3 -6.1 -4.5 73 1.5 W 17 22 9 12 - - 0.0
20/08:00pm -0.1 -5.1 -4.3 73 1.5 WNW 13 22 7 12 - - 0.0
20/07:30pm -0.4 -4.2 -3.6 79 1.2 WSW 7 17 4 9 - - 0.0
20/07:00pm 0.0 -4.9 -3.4 78 1.3 W 13 22 7 12 - - 0.0
20/06:30pm 0.3 -4.6 -3.1 78 1.3 W 13 22 7 12 - - 0.0
20/06:00pm 0.7 -4.6 -3.4 74 1.6 W 15 22 8 12 - - 0.0
20/05:30pm 0.6 -3.5 -3.3 75 1.5 W 9 17 5 9 - - 0.0
20/05:00pm 1.8 -3.1 -3.1 70 2.0 W 13 20 7 11 - - 0.0
20/04:30pm 2.3 -2.2 -3.0 68 2.0 W 11 22 6 12 - - 0.0
20/04:00pm 2.4 -1.7 -3.3 66 2.2 WNW 9 17 5 9 - - 0.0
20/03:30pm 2.5 -1.6 -3.4 65 2.3 W 9 19 5 10 - - 0.0
20/03:00pm 2.2 -2.8 -4.1 63 2.5 WSW 13 22 7 12 - - 0.0
20/02:30pm 2.4 -2.2 -4.3 61 2.6 WSW 11 26 6 14 - - 0.0
20/02:00pm 2.5 -1.8 -4.7 59 2.8 WSW 9 24 5 13 - - 0.0
20/01:30pm 2.8 -1.1 -5.1 56 3.1 WSW 7 19 4 10 - - 0.0
20/01:00pm 2.4 -1.9 -5.0 58 2.9 WNW 9 19 5 10 - - 0.0
20/12:30pm 2.2 -1.6 -5.4 57 2.9 W 6 13 3 7 - - 0.0
20/12:00pm 2.1 -1.7 -5.7 56 2.9 WSW 6 19 3 10 - - 0.0
20/11:30am 1.6 -2.4 -7.2 52 3.1 WSW 6 13 3 7 - - 0.0
20/11:00am 1.4 -3.2 -8.1 49 3.3 SW 9 22 5 12 - - 0.0
20/10:30am 1.1 -4.0 -9.5 45 3.5 SW 11 22 6 12 - - 0.0
20/10:00am 0.5 -4.7 -10.9 42 3.6 WSW 11 22 6 12 - - 0.0
20/09:30am 0.6 -3.9 -11.4 40 3.7 SW 7 20 4 11 - - 0.0
20/09:00am 0.2 -4.4 -13.1 36 3.9 SW 7 20 4 11 - - 0.0
20/08:30am -0.6 -6.0 -14.5 34 3.8 WSW 11 24 6 13 - - 0.0
20/08:00am -1.2 -7.4 -15.0 34 3.7 WSW 15 26 8 14 - - 0.0
20/07:30am -1.8 -6.8 -13.9 39 3.3 WSW 9 19 5 10 - - 0.0
20/07:00am -2.5 -9.0 -12.8 45 2.8 WSW 17 30 9 16 - - 0.0
20/06:30am -4.4 -9.2 -10.8 61 1.7 SW 9 26 5 14 - - 0.0
20/06:00am -4.5 -8.9 -10.7 62 1.6 WSW 7 19 4 10 - - 0.0
20/05:30am -5.4 -9.8 -12.3 58 1.7 SW 6 15 3 8 - - 0.0
20/05:00am -5.8 -9.3 -11.3 65 1.3 SSW 2 7 1 4 - - 0.0
20/04:30am -5.4 -8.8 -10.2 69 1.2 SW 2 9 1 5 - - 0.0
20/04:00am -5.5 -8.9 -9.7 72 1.0 SW 2 7 1 4 - - 0.0
20/03:30am -4.9 -8.1 -7.6 81 0.6 SSW 2 9 1 5 - - 0.0
20/03:00am -5.9 -8.8 -8.5 82 0.6 CALM 0 4 0 2 - - 0.0
20/02:30am -5.2 -8.8 -7.5 84 0.5 SW 4 9 2 5 - - 0.0
20/02:00am -5.0 -7.9 -7.6 82 0.6 CALM 0 4 0 2 - - 0.0
20/01:30am -4.6 -7.4 -7.2 82 0.6 CALM 0 2 0 1 - - 0.0
20/01:00am -3.5 -7.4 -6.8 78 0.9 SSW 6 17 3 9 - - 0.0
20/12:30am -2.9 -7.3 -6.0 79 0.9 WSW 9 19 5 10 - - 0.0
20/12:00am -3.0 -7.8 -6.4 77 1.0 WSW 11 22 6 12 - - 0.0
 
Date/Time
EST
Temp
°C
App
Temp
°C
Dew
Point
°C
Rel
Hum
%
Delta-T
°C
Wind Press
QNH
hPa
Press
MSL
hPa
Rain since
9am
mm
Dir  Spd
km/h
Gust
km/h
Spd
kts
Gust
kts
19/11:30pm -3.8 -7.0 -6.9 79 0.8 WSW 2 9 1 5 - - 0.0

Other Formats:

Comma delimited format used in spreadsheet applications
http://www.bom.gov.au/fwo/IDN60801/IDN60801.94915.axf

JavaScript Object Notation format (JSON) in row-major order
http://www.bom.gov.au/fwo/IDN60801/IDN60801.94915.json